sensor_id;sensor_type;location;lat;lon;timestamp;temperature;humidity
66019;HTU21D;52787;51.084;5.816;2023-05-07T00:01:59;17.40;79.21
66019;HTU21D;52787;51.084;5.816;2023-05-07T00:04:26;17.39;79.34
66019;HTU21D;52787;51.084;5.816;2023-05-07T00:06:53;17.39;79.50
66019;HTU21D;52787;51.084;5.816;2023-05-07T00:09:19;17.39;79.65
66019;HTU21D;52787;51.084;5.816;2023-05-07T00:11:44;17.38;79.82
66019;HTU21D;52787;51.084;5.816;2023-05-07T00:14:10;17.38;79.95
66019;HTU21D;52787;51.084;5.816;2023-05-07T00:16:36;17.39;79.93
66019;HTU21D;52787;51.084;5.816;2023-05-07T00:19:03;17.37;80.05
66019;HTU21D;52787;51.084;5.816;2023-05-07T00:21:29;17.39;80.16
66019;HTU21D;52787;51.084;5.816;2023-05-07T00:23:55;17.40;80.07
66019;HTU21D;52787;51.084;5.816;2023-05-07T00:26:21;17.40;79.92
66019;HTU21D;52787;51.084;5.816;2023-05-07T00:28:47;17.38;80.06
66019;HTU21D;52787;51.084;5.816;2023-05-07T00:31:13;17.38;80.12
66019;HTU21D;52787;51.084;5.816;2023-05-07T00:33:39;17.38;80.03
66019;HTU21D;52787;51.084;5.816;2023-05-07T00:36:05;17.38;80.06
66019;HTU21D;52787;51.084;5.816;2023-05-07T00:38:31;17.38;80.14
66019;HTU21D;52787;51.084;5.816;2023-05-07T00:40:56;17.40;80.21
66019;HTU21D;52787;51.084;5.816;2023-05-07T00:43:22;17.48;80.01
66019;HTU21D;52787;51.084;5.816;2023-05-07T00:45:48;17.50;79.78
66019;HTU21D;52787;51.084;5.816;2023-05-07T00:48:14;17.50;79.78
66019;HTU21D;52787;51.084;5.816;2023-05-07T00:50:41;17.50;79.88
66019;HTU21D;52787;51.084;5.816;2023-05-07T00:53:07;17.49;79.97
66019;HTU21D;52787;51.084;5.816;2023-05-07T00:55:33;17.46;80.04
66019;HTU21D;52787;51.084;5.816;2023-05-07T00:57:59;17.46;80.14
66019;HTU21D;52787;51.084;5.816;2023-05-07T01:00:25;17.45;80.35
66019;HTU21D;52787;51.084;5.816;2023-05-07T01:02:50;17.41;80.39
66019;HTU21D;52787;51.084;5.816;2023-05-07T01:05:18;17.41;80.41
66019;HTU21D;52787;51.084;5.816;2023-05-07T01:07:47;17.44;80.31
66019;HTU21D;52787;51.084;5.816;2023-05-07T01:10:14;17.47;80.12
66019;HTU21D;52787;51.084;5.816;2023-05-07T01:12:42;17.47;79.95
66019;HTU21D;52787;51.084;5.816;2023-05-07T01:15:09;17.43;79.96
66019;HTU21D;52787;51.084;5.816;2023-05-07T01:17:37;17.46;79.93
66019;HTU21D;52787;51.084;5.816;2023-05-07T01:20:06;17.48;79.78
66019;HTU21D;52787;51.084;5.816;2023-05-07T01:22:34;17.51;79.47
66019;HTU21D;52787;51.084;5.816;2023-05-07T01:25:03;17.49;79.37
66019;HTU21D;52787;51.084;5.816;2023-05-07T01:27:30;17.47;79.55
66019;HTU21D;52787;51.084;5.816;2023-05-07T01:29:56;17.46;79.49
66019;HTU21D;52787;51.084;5.816;2023-05-07T01:32:51;17.47;79.39
66019;HTU21D;52787;51.084;5.816;2023-05-07T01:35:29;17.47;79.34
66019;HTU21D;52787;51.084;5.816;2023-05-07T01:37:58;17.45;79.26
66019;HTU21D;52787;51.084;5.816;2023-05-07T01:40:26;17.43;79.19
66019;HTU21D;52787;51.084;5.816;2023-05-07T01:42:54;17.41;79.14
66019;HTU21D;52787;51.084;5.816;2023-05-07T01:45:20;17.30;79.37
66019;HTU21D;52787;51.084;5.816;2023-05-07T01:47:46;17.18;79.91
66019;HTU21D;52787;51.084;5.816;2023-05-07T01:50:12;17.09;80.24
66019;HTU21D;52787;51.084;5.816;2023-05-07T01:52:40;17.02;80.51
66019;HTU21D;52787;51.084;5.816;2023-05-07T01:55:06;16.96;80.74
66019;HTU21D;52787;51.084;5.816;2023-05-07T01:57:32;16.96;80.63
66019;HTU21D;52787;51.084;5.816;2023-05-07T01:59:58;16.94;80.56
66019;HTU21D;52787;51.084;5.816;2023-05-07T02:02:24;16.94;80.60
66019;HTU21D;52787;51.084;5.816;2023-05-07T02:04:50;16.92;80.45
66019;HTU21D;52787;51.084;5.816;2023-05-07T02:07:15;16.89;80.47
66019;HTU21D;52787;51.084;5.816;2023-05-07T02:09:41;16.88;80.48
66019;HTU21D;52787;51.084;5.816;2023-05-07T02:12:07;16.89;80.53
66019;HTU21D;52787;51.084;5.816;2023-05-07T02:14:32;16.93;80.31
66019;HTU21D;52787;51.084;5.816;2023-05-07T02:16:58;16.91;80.30
66019;HTU21D;52787;51.084;5.816;2023-05-07T02:19:24;16.89;80.52
66019;HTU21D;52787;51.084;5.816;2023-05-07T02:21:50;16.87;80.53
66019;HTU21D;52787;51.084;5.816;2023-05-07T02:24:16;16.87;80.60
66019;HTU21D;52787;51.084;5.816;2023-05-07T02:26:42;16.89;80.69
66019;HTU21D;52787;51.084;5.816;2023-05-07T02:29:08;16.89;80.74
66019;HTU21D;52787;51.084;5.816;2023-05-07T02:31:33;16.89;80.78
66019;HTU21D;52787;51.084;5.816;2023-05-07T02:34:00;16.90;80.89
66019;HTU21D;52787;51.084;5.816;2023-05-07T02:36:26;16.90;80.89
66019;HTU21D;52787;51.084;5.816;2023-05-07T02:38:52;16.91;80.99
66019;HTU21D;52787;51.084;5.816;2023-05-07T02:41:18;16.92;80.91
66019;HTU21D;52787;51.084;5.816;2023-05-07T02:43:44;16.95;81.00
66019;HTU21D;52787;51.084;5.816;2023-05-07T02:46:13;16.98;80.79
66019;HTU21D;52787;51.084;5.816;2023-05-07T02:48:38;16.98;80.79
66019;HTU21D;52787;51.084;5.816;2023-05-07T02:51:04;16.94;80.84
66019;HTU21D;52787;51.084;5.816;2023-05-07T02:53:31;16.92;80.98
66019;HTU21D;52787;51.084;5.816;2023-05-07T02:55:59;16.89;81.14
66019;HTU21D;52787;51.084;5.816;2023-05-07T02:58:26;16.88;81.23
66019;HTU21D;52787;51.084;5.816;2023-05-07T03:00:53;16.89;81.49
66019;HTU21D;52787;51.084;5.816;2023-05-07T03:03:22;16.94;81.34
66019;HTU21D;52787;51.084;5.816;2023-05-07T03:05:48;16.95;81.40
66019;HTU21D;52787;51.084;5.816;2023-05-07T03:08:14;17.01;81.22
66019;HTU21D;52787;51.084;5.816;2023-05-07T03:10:40;17.04;80.98
66019;HTU21D;52787;51.084;5.816;2023-05-07T03:13:05;17.06;80.94
66019;HTU21D;52787;51.084;5.816;2023-05-07T03:15:31;17.05;80.85
66019;HTU21D;52787;51.084;5.816;2023-05-07T03:17:57;17.01;80.98
66019;HTU21D;52787;51.084;5.816;2023-05-07T03:20:23;16.98;81.27
66019;HTU21D;52787;51.084;5.816;2023-05-07T03:22:48;16.98;81.23
66019;HTU21D;52787;51.084;5.816;2023-05-07T03:25:14;17.01;81.00
66019;HTU21D;52787;51.084;5.816;2023-05-07T03:27:40;17.02;80.81
66019;HTU21D;52787;51.084;5.816;2023-05-07T03:30:09;17.01;80.81
66019;HTU21D;52787;51.084;5.816;2023-05-07T03:32:35;17.01;80.81
66019;HTU21D;52787;51.084;5.816;2023-05-07T03:35:01;16.99;80.74
66019;HTU21D;52787;51.084;5.816;2023-05-07T03:37:27;16.96;80.81
66019;HTU21D;52787;51.084;5.816;2023-05-07T03:39:53;16.94;80.91
66019;HTU21D;52787;51.084;5.816;2023-05-07T03:42:19;16.91;81.00
66019;HTU21D;52787;51.084;5.816;2023-05-07T03:44:45;16.88;81.09
66019;HTU21D;52787;51.084;5.816;2023-05-07T03:47:11;16.87;81.06
66019;HTU21D;52787;51.084;5.816;2023-05-07T03:49:39;16.78;81.15
66019;HTU21D;52787;51.084;5.816;2023-05-07T03:52:05;16.77;81.23
66019;HTU21D;52787;51.084;5.816;2023-05-07T03:54:32;16.77;81.15
66019;HTU21D;52787;51.084;5.816;2023-05-07T03:56:58;16.79;80.90
66019;HTU21D;52787;51.084;5.816;2023-05-07T03:59:24;16.79;80.70
66019;HTU21D;52787;51.084;5.816;2023-05-07T04:01:49;16.81;80.56
66019;HTU21D;52787;51.084;5.816;2023-05-07T04:04:15;16.80;80.31
66019;HTU21D;52787;51.084;5.816;2023-05-07T04:06:41;16.79;80.24
66019;HTU21D;52787;51.084;5.816;2023-05-07T04:09:07;16.75;80.31
66019;HTU21D;52787;51.084;5.816;2023-05-07T04:11:34;16.76;80.35
66019;HTU21D;52787;51.084;5.816;2023-05-07T04:14:00;16.78;80.27
66019;HTU21D;52787;51.084;5.816;2023-05-07T04:16:26;16.76;80.21
66019;HTU21D;52787;51.084;5.816;2023-05-07T04:18:52;16.78;80.20
66019;HTU21D;52787;51.084;5.816;2023-05-07T04:21:19;16.80;80.06
66019;HTU21D;52787;51.084;5.816;2023-05-07T04:23:47;16.82;79.93
66019;HTU21D;52787;51.084;5.816;2023-05-07T04:26:13;16.80;80.00
66019;HTU21D;52787;51.084;5.816;2023-05-07T04:28:40;16.75;80.30
66019;HTU21D;52787;51.084;5.816;2023-05-07T04:31:07;16.74;80.50
66019;HTU21D;52787;51.084;5.816;2023-05-07T04:33:33;16.74;80.46
66019;HTU21D;52787;51.084;5.816;2023-05-07T04:36:03;16.73;80.56
66019;HTU21D;52787;51.084;5.816;2023-05-07T04:38:32;16.71;80.54
66019;HTU21D;52787;51.084;5.816;2023-05-07T04:41:03;16.70;80.69
66019;HTU21D;52787;51.084;5.816;2023-05-07T04:43:30;16.74;80.77
66019;HTU21D;52787;51.084;5.816;2023-05-07T04:45:56;16.80;80.63
66019;HTU21D;52787;51.084;5.816;2023-05-07T04:48:22;16.85;80.63
66019;HTU21D;52787;51.084;5.816;2023-05-07T04:50:49;16.89;80.66
66019;HTU21D;52787;51.084;5.816;2023-05-07T04:53:15;16.93;80.56
66019;HTU21D;52787;51.084;5.816;2023-05-07T04:55:41;16.99;80.47
66019;HTU21D;52787;51.084;5.816;2023-05-07T04:58:08;17.03;80.31
66019;HTU21D;52787;51.084;5.816;2023-05-07T05:00:34;17.05;80.11
66019;HTU21D;52787;51.084;5.816;2023-05-07T05:03:00;17.05;80.37
66019;HTU21D;52787;51.084;5.816;2023-05-07T05:05:26;17.02;80.62
66019;HTU21D;52787;51.084;5.816;2023-05-07T05:07:52;17.03;80.82
66019;HTU21D;52787;51.084;5.816;2023-05-07T05:10:18;17.06;80.86
66019;HTU21D;52787;51.084;5.816;2023-05-07T05:12:45;17.11;80.69
66019;HTU21D;52787;51.084;5.816;2023-05-07T05:15:13;17.18;80.36
66019;HTU21D;52787;51.084;5.816;2023-05-07T05:17:39;17.21;80.25
66019;HTU21D;52787;51.084;5.816;2023-05-07T05:20:05;17.25;80.27
66019;HTU21D;52787;51.084;5.816;2023-05-07T05:22:32;17.32;79.90
66019;HTU21D;52787;51.084;5.816;2023-05-07T05:24:58;17.34;79.82
66019;HTU21D;52787;51.084;5.816;2023-05-07T05:27:24;17.38;79.87
66019;HTU21D;52787;51.084;5.816;2023-05-07T05:29:49;17.47;79.70
66019;HTU21D;52787;51.084;5.816;2023-05-07T05:32:15;17.54;79.44
66019;HTU21D;52787;51.084;5.816;2023-05-07T05:34:41;17.63;78.89
66019;HTU21D;52787;51.084;5.816;2023-05-07T05:37:07;17.66;78.58
66019;HTU21D;52787;51.084;5.816;2023-05-07T05:39:33;17.66;78.50
66019;HTU21D;52787;51.084;5.816;2023-05-07T05:41:58;17.72;78.40
66019;HTU21D;52787;51.084;5.816;2023-05-07T05:44:25;17.73;78.04
66019;HTU21D;52787;51.084;5.816;2023-05-07T05:46:51;17.72;77.92
66019;HTU21D;52787;51.084;5.816;2023-05-07T05:49:16;17.76;77.82
66019;HTU21D;52787;51.084;5.816;2023-05-07T05:51:43;17.80;77.66
66019;HTU21D;52787;51.084;5.816;2023-05-07T05:54:09;17.81;77.31
66019;HTU21D;52787;51.084;5.816;2023-05-07T05:56:36;17.81;77.60
66019;HTU21D;52787;51.084;5.816;2023-05-07T05:59:02;17.87;77.76
66019;HTU21D;52787;51.084;5.816;2023-05-07T06:01:28;17.92;77.61
66019;HTU21D;52787;51.084;5.816;2023-05-07T06:03:54;17.97;77.66
66019;HTU21D;52787;51.084;5.816;2023-05-07T06:06:19;17.99;77.27
66019;HTU21D;52787;51.084;5.816;2023-05-07T06:08:45;18.05;77.21
66019;HTU21D;52787;51.084;5.816;2023-05-07T06:11:11;18.11;77.06
66019;HTU21D;52787;51.084;5.816;2023-05-07T06:13:36;18.19;76.72
66019;HTU21D;52787;51.084;5.816;2023-05-07T06:16:02;18.20;76.61
66019;HTU21D;52787;51.084;5.816;2023-05-07T06:18:28;18.23;76.79
66019;HTU21D;52787;51.084;5.816;2023-05-07T06:20:54;18.23;76.87
66019;HTU21D;52787;51.084;5.816;2023-05-07T06:23:20;18.26;76.93
66019;HTU21D;52787;51.084;5.816;2023-05-07T06:25:49;18.34;76.64
66019;HTU21D;52787;51.084;5.816;2023-05-07T06:28:18;18.43;76.33
66019;HTU21D;52787;51.084;5.816;2023-05-07T06:30:44;18.56;76.04
66019;HTU21D;52787;51.084;5.816;2023-05-07T06:33:10;18.72;75.61
66019;HTU21D;52787;51.084;5.816;2023-05-07T06:35:36;18.84;75.23
66019;HTU21D;52787;51.084;5.816;2023-05-07T06:38:02;18.98;74.49
66019;HTU21D;52787;51.084;5.816;2023-05-07T06:40:28;19.08;74.07
66019;HTU21D;52787;51.084;5.816;2023-05-07T06:42:53;19.16;73.78
66019;HTU21D;52787;51.084;5.816;2023-05-07T06:45:20;19.26;73.37
66019;HTU21D;52787;51.084;5.816;2023-05-07T06:47:46;19.33;73.48
66019;HTU21D;52787;51.084;5.816;2023-05-07T06:50:11;19.44;73.10
66019;HTU21D;52787;51.084;5.816;2023-05-07T06:52:37;19.53;72.70
66019;HTU21D;52787;51.084;5.816;2023-05-07T06:55:03;19.60;72.33
66019;HTU21D;52787;51.084;5.816;2023-05-07T06:57:30;19.67;71.96
66019;HTU21D;52787;51.084;5.816;2023-05-07T06:59:55;19.74;71.70
66019;HTU21D;52787;51.084;5.816;2023-05-07T07:02:21;19.81;71.86
66019;HTU21D;52787;51.084;5.816;2023-05-07T07:04:47;19.87;71.84
66019;HTU21D;52787;51.084;5.816;2023-05-07T07:07:13;19.91;71.67
66019;HTU21D;52787;51.084;5.816;2023-05-07T07:09:38;19.96;71.21
66019;HTU21D;52787;51.084;5.816;2023-05-07T07:12:04;20.00;70.96
66019;HTU21D;52787;51.084;5.816;2023-05-07T07:14:30;20.07;70.21
66019;HTU21D;52787;51.084;5.816;2023-05-07T07:16:56;20.13;70.21
66019;HTU21D;52787;51.084;5.816;2023-05-07T07:19:22;20.18;70.16
66019;HTU21D;52787;51.084;5.816;2023-05-07T07:21:47;20.25;70.14
66019;HTU21D;52787;51.084;5.816;2023-05-07T07:24:14;20.29;70.39
66019;HTU21D;52787;51.084;5.816;2023-05-07T07:26:45;20.33;70.01
66019;HTU21D;52787;51.084;5.816;2023-05-07T07:29:10;20.37;69.65
66019;HTU21D;52787;51.084;5.816;2023-05-07T07:31:36;20.44;69.01
66019;HTU21D;52787;51.084;5.816;2023-05-07T07:34:02;20.48;69.07
66019;HTU21D;52787;51.084;5.816;2023-05-07T07:36:28;20.53;68.57
66019;HTU21D;52787;51.084;5.816;2023-05-07T07:38:53;20.58;69.12
66019;HTU21D;52787;51.084;5.816;2023-05-07T07:41:19;20.69;68.91
66019;HTU21D;52787;51.084;5.816;2023-05-07T07:43:45;20.77;68.53
66019;HTU21D;52787;51.084;5.816;2023-05-07T07:46:12;20.91;68.65
66019;HTU21D;52787;51.084;5.816;2023-05-07T07:48:38;21.04;68.75
66019;HTU21D;52787;51.084;5.816;2023-05-07T07:51:03;21.19;68.33
66019;HTU21D;52787;51.084;5.816;2023-05-07T07:53:30;21.27;67.24
66019;HTU21D;52787;51.084;5.816;2023-05-07T07:55:56;21.32;66.96
66019;HTU21D;52787;51.084;5.816;2023-05-07T07:58:22;21.35;66.26
66019;HTU21D;52787;51.084;5.816;2023-05-07T08:00:48;21.45;66.51
66019;HTU21D;52787;51.084;5.816;2023-05-07T08:03:14;21.53;66.70
66019;HTU21D;52787;51.084;5.816;2023-05-07T08:05:42;21.66;67.11
66019;HTU21D;52787;51.084;5.816;2023-05-07T08:08:08;21.87;67.01
66019;HTU21D;52787;51.084;5.816;2023-05-07T08:10:35;22.06;65.95
66019;HTU21D;52787;51.084;5.816;2023-05-07T08:13:04;22.23;64.55
66019;HTU21D;52787;51.084;5.816;2023-05-07T08:15:30;22.35;64.84
66019;HTU21D;52787;51.084;5.816;2023-05-07T08:17:57;22.54;64.18
66019;HTU21D;52787;51.084;5.816;2023-05-07T08:20:25;22.72;63.53
66019;HTU21D;52787;51.084;5.816;2023-05-07T08:22:51;22.88;62.77
66019;HTU21D;52787;51.084;5.816;2023-05-07T08:25:17;23.10;62.57
66019;HTU21D;52787;51.084;5.816;2023-05-07T08:27:43;23.28;62.01
66019;HTU21D;52787;51.084;5.816;2023-05-07T08:30:10;23.43;61.62
66019;HTU21D;52787;51.084;5.816;2023-05-07T08:32:37;23.56;60.73
66019;HTU21D;52787;51.084;5.816;2023-05-07T08:35:03;23.67;60.99
66019;HTU21D;52787;51.084;5.816;2023-05-07T08:37:29;23.80;59.73
66019;HTU21D;52787;51.084;5.816;2023-05-07T08:39:54;23.90;59.45
66019;HTU21D;52787;51.084;5.816;2023-05-07T08:42:23;23.97;58.93
66019;HTU21D;52787;51.084;5.816;2023-05-07T08:44:51;24.01;58.90
66019;HTU21D;52787;51.084;5.816;2023-05-07T08:47:19;24.00;58.31
66019;HTU21D;52787;51.084;5.816;2023-05-07T08:49:46;23.94;57.77
66019;HTU21D;52787;51.084;5.816;2023-05-07T08:52:12;23.99;58.08
66019;HTU21D;52787;51.084;5.816;2023-05-07T08:54:38;24.10;57.82
66019;HTU21D;52787;51.084;5.816;2023-05-07T08:57:04;24.17;56.44
66019;HTU21D;52787;51.084;5.816;2023-05-07T08:59:30;24.27;56.14
66019;HTU21D;52787;51.084;5.816;2023-05-07T09:01:56;24.26;57.39
66019;HTU21D;52787;51.084;5.816;2023-05-07T09:04:22;24.24;57.80
66019;HTU21D;52787;51.084;5.816;2023-05-07T09:06:48;24.19;58.42
66019;HTU21D;52787;51.084;5.816;2023-05-07T09:09:21;24.27;58.52
66019;HTU21D;52787;51.084;5.816;2023-05-07T09:11:47;24.16;58.12
66019;HTU21D;52787;51.084;5.816;2023-05-07T09:14:13;24.11;58.79
66019;HTU21D;52787;51.084;5.816;2023-05-07T09:19:07;24.15;59.51
66019;HTU21D;52787;51.084;5.816;2023-05-07T09:21:33;24.21;58.90
66019;HTU21D;52787;51.084;5.816;2023-05-07T09:23:58;24.16;58.83
66019;HTU21D;52787;51.084;5.816;2023-05-07T09:26:25;24.14;59.19
66019;HTU21D;52787;51.084;5.816;2023-05-07T09:28:51;24.19;58.74
66019;HTU21D;52787;51.084;5.816;2023-05-07T09:31:17;24.29;58.75
66019;HTU21D;52787;51.084;5.816;2023-05-07T09:33:43;24.42;57.95
66019;HTU21D;52787;51.084;5.816;2023-05-07T09:36:10;24.47;57.64
66019;HTU21D;52787;51.084;5.816;2023-05-07T09:38:37;24.47;57.98
66019;HTU21D;52787;51.084;5.816;2023-05-07T09:41:07;24.50;58.07
66019;HTU21D;52787;51.084;5.816;2023-05-07T09:43:35;24.63;57.63
66019;HTU21D;52787;51.084;5.816;2023-05-07T09:46:05;24.70;57.96
66019;HTU21D;52787;51.084;5.816;2023-05-07T09:48:38;24.85;57.18
66019;HTU21D;52787;51.084;5.816;2023-05-07T09:54:00;25.13;56.90
66019;HTU21D;52787;51.084;5.816;2023-05-07T09:56:29;25.38;55.97
66019;HTU21D;52787;51.084;5.816;2023-05-07T09:59:01;25.52;55.92
66019;HTU21D;52787;51.084;5.816;2023-05-07T10:01:31;25.61;55.78
66019;HTU21D;52787;51.084;5.816;2023-05-07T10:03:58;25.63;55.46
66019;HTU21D;52787;51.084;5.816;2023-05-07T10:06:25;25.59;55.47
66019;HTU21D;52787;51.084;5.816;2023-05-07T10:08:52;25.66;55.23
66019;HTU21D;52787;51.084;5.816;2023-05-07T10:11:19;25.83;54.43
66019;HTU21D;52787;51.084;5.816;2023-05-07T10:13:46;25.92;53.96
66019;HTU21D;52787;51.084;5.816;2023-05-07T10:16:14;26.03;52.53
66019;HTU21D;52787;51.084;5.816;2023-05-07T10:18:41;26.08;52.03
66019;HTU21D;52787;51.084;5.816;2023-05-07T10:21:12;26.30;51.56
66019;HTU21D;52787;51.084;5.816;2023-05-07T10:23:45;26.52;50.44
66019;HTU21D;52787;51.084;5.816;2023-05-07T10:26:22;26.62;50.31
66019;HTU21D;52787;51.084;5.816;2023-05-07T10:28:53;26.89;50.05
66019;HTU21D;52787;51.084;5.816;2023-05-07T10:32:18;27.04;48.21
66019;HTU21D;52787;51.084;5.816;2023-05-07T10:34:42;26.94;48.21
66019;HTU21D;52787;51.084;5.816;2023-05-07T10:37:11;26.90;48.15
66019;HTU21D;52787;51.084;5.816;2023-05-07T10:39:37;26.89;47.60
66019;HTU21D;52787;51.084;5.816;2023-05-07T10:42:14;26.78;46.93
66019;HTU21D;52787;51.084;5.816;2023-05-07T10:44:40;26.68;47.11
66019;HTU21D;52787;51.084;5.816;2023-05-07T10:52:21;26.23;48.87
66019;HTU21D;52787;51.084;5.816;2023-05-07T10:57:44;25.87;50.41
66019;HTU21D;52787;51.084;5.816;2023-05-07T11:05:28;25.89;50.27
66019;HTU21D;52787;51.084;5.816;2023-05-07T11:07:59;25.83;50.17
66019;HTU21D;52787;51.084;5.816;2023-05-07T11:10:55;25.64;50.87
66019;HTU21D;52787;51.084;5.816;2023-05-07T11:13:51;25.44;50.55
66019;HTU21D;52787;51.084;5.816;2023-05-07T11:16:21;25.29;51.11
66019;HTU21D;52787;51.084;5.816;2023-05-07T11:18:55;25.16;51.66
66019;HTU21D;52787;51.084;5.816;2023-05-07T11:21:38;24.99;52.14
66019;HTU21D;52787;51.084;5.816;2023-05-07T11:24:10;24.84;52.82
66019;HTU21D;52787;51.084;5.816;2023-05-07T11:26:44;24.66;53.36
66019;HTU21D;52787;51.084;5.816;2023-05-07T11:29:21;24.49;53.13
66019;HTU21D;52787;51.084;5.816;2023-05-07T11:31:52;24.28;53.23
66019;HTU21D;52787;51.084;5.816;2023-05-07T11:34:24;24.11;53.89
66019;HTU21D;52787;51.084;5.816;2023-05-07T11:36:51;24.01;54.38
66019;HTU21D;52787;51.084;5.816;2023-05-07T11:39:28;23.91;54.84
66019;HTU21D;52787;51.084;5.816;2023-05-07T11:41:55;23.86;55.06
66019;HTU21D;52787;51.084;5.816;2023-05-07T11:44:21;23.71;55.56
66019;HTU21D;52787;51.084;5.816;2023-05-07T11:46:48;23.34;56.23
66019;HTU21D;52787;51.084;5.816;2023-05-07T11:49:15;22.82;58.22
66019;HTU21D;52787;51.084;5.816;2023-05-07T11:51:42;22.34;60.24
66019;HTU21D;52787;51.084;5.816;2023-05-07T11:54:09;21.91;62.06
66019;HTU21D;52787;51.084;5.816;2023-05-07T11:56:37;21.60;63.93
66019;HTU21D;52787;51.084;5.816;2023-05-07T11:59:04;21.38;65.46
66019;HTU21D;52787;51.084;5.816;2023-05-07T12:01:30;21.20;66.46
66019;HTU21D;52787;51.084;5.816;2023-05-07T12:03:56;21.09;68.06
66019;HTU21D;52787;51.084;5.816;2023-05-07T12:06:21;21.03;68.20
66019;HTU21D;52787;51.084;5.816;2023-05-07T12:08:47;21.00;68.94
66019;HTU21D;52787;51.084;5.816;2023-05-07T12:11:22;21.03;68.80
66019;HTU21D;52787;51.084;5.816;2023-05-07T12:13:49;21.05;68.56
66019;HTU21D;52787;51.084;5.816;2023-05-07T12:16:15;21.09;68.13
66019;HTU21D;52787;51.084;5.816;2023-05-07T12:18:42;21.31;67.88
66019;HTU21D;52787;51.084;5.816;2023-05-07T12:21:08;21.61;67.07
66019;HTU21D;52787;51.084;5.816;2023-05-07T12:23:36;21.96;67.29
66019;HTU21D;52787;51.084;5.816;2023-05-07T12:26:03;22.22;67.06
66019;HTU21D;52787;51.084;5.816;2023-05-07T12:28:29;22.53;66.04
66019;HTU21D;52787;51.084;5.816;2023-05-07T12:31:02;22.83;65.09
66019;HTU21D;52787;51.084;5.816;2023-05-07T12:33:28;23.05;64.88
66019;HTU21D;52787;51.084;5.816;2023-05-07T12:35:55;23.08;65.43
66019;HTU21D;52787;51.084;5.816;2023-05-07T12:38:22;22.96;65.44
66019;HTU21D;52787;51.084;5.816;2023-05-07T12:40:50;22.90;65.08
66019;HTU21D;52787;51.084;5.816;2023-05-07T12:43:26;22.82;64.79
66019;HTU21D;52787;51.084;5.816;2023-05-07T12:46:00;22.95;63.31
66019;HTU21D;52787;51.084;5.816;2023-05-07T12:48:28;23.21;61.86
66019;HTU21D;52787;51.084;5.816;2023-05-07T12:50:55;23.46;61.29
66019;HTU21D;52787;51.084;5.816;2023-05-07T12:53:26;23.71;60.38
66019;HTU21D;52787;51.084;5.816;2023-05-07T12:55:55;24.02;59.03
66019;HTU21D;52787;51.084;5.816;2023-05-07T12:58:26;24.26;58.24
66019;HTU21D;52787;51.084;5.816;2023-05-07T13:00:57;24.64;56.79
66019;HTU21D;52787;51.084;5.816;2023-05-07T13:03:33;24.87;55.59
66019;HTU21D;52787;51.084;5.816;2023-05-07T13:06:02;25.08;55.04
66019;HTU21D;52787;51.084;5.816;2023-05-07T13:08:35;25.05;54.14
66019;HTU21D;52787;51.084;5.816;2023-05-07T13:11:04;24.78;53.49
66019;HTU21D;52787;51.084;5.816;2023-05-07T13:13:31;24.62;53.60
66019;HTU21D;52787;51.084;5.816;2023-05-07T13:16:00;24.58;53.98
66019;HTU21D;52787;51.084;5.816;2023-05-07T13:18:27;24.51;55.14
66019;HTU21D;52787;51.084;5.816;2023-05-07T13:20:54;24.69;55.39
66019;HTU21D;52787;51.084;5.816;2023-05-07T13:23:21;24.78;55.10
66019;HTU21D;52787;51.084;5.816;2023-05-07T13:25:48;24.97;54.68
66019;HTU21D;52787;51.084;5.816;2023-05-07T13:28:14;24.98;54.59
66019;HTU21D;52787;51.084;5.816;2023-05-07T13:30:40;24.95;54.40
66019;HTU21D;52787;51.084;5.816;2023-05-07T13:33:07;24.89;54.48
66019;HTU21D;52787;51.084;5.816;2023-05-07T13:35:33;24.87;54.05
66019;HTU21D;52787;51.084;5.816;2023-05-07T13:37:59;24.83;53.52
66019;HTU21D;52787;51.084;5.816;2023-05-07T13:40:25;24.82;52.87
66019;HTU21D;52787;51.084;5.816;2023-05-07T13:42:51;24.73;51.39
66019;HTU21D;52787;51.084;5.816;2023-05-07T13:45:18;24.63;51.52
66019;HTU21D;52787;51.084;5.816;2023-05-07T13:47:44;24.60;51.46
66019;HTU21D;52787;51.084;5.816;2023-05-07T13:50:12;24.46;51.84
66019;HTU21D;52787;51.084;5.816;2023-05-07T13:52:41;24.50;51.38
66019;HTU21D;52787;51.084;5.816;2023-05-07T13:55:09;24.41;50.60
66019;HTU21D;52787;51.084;5.816;2023-05-07T13:57:38;24.16;51.66
66019;HTU21D;52787;51.084;5.816;2023-05-07T14:00:05;23.96;52.85
66019;HTU21D;52787;51.084;5.816;2023-05-07T14:02:31;24.05;52.70
66019;HTU21D;52787;51.084;5.816;2023-05-07T14:04:57;24.03;52.37
66019;HTU21D;52787;51.084;5.816;2023-05-07T14:07:23;24.05;52.32
66019;HTU21D;52787;51.084;5.816;2023-05-07T14:09:48;24.11;52.63
66019;HTU21D;52787;51.084;5.816;2023-05-07T14:12:14;24.25;52.89
66019;HTU21D;52787;51.084;5.816;2023-05-07T14:14:40;24.21;53.18
66019;HTU21D;52787;51.084;5.816;2023-05-07T14:17:06;24.18;53.39
66019;HTU21D;52787;51.084;5.816;2023-05-07T14:19:31;24.30;52.85
66019;HTU21D;52787;51.084;5.816;2023-05-07T14:21:57;24.34;52.85
66019;HTU21D;52787;51.084;5.816;2023-05-07T14:24:24;24.38;53.51
66019;HTU21D;52787;51.084;5.816;2023-05-07T14:26:49;24.36;53.00
66019;HTU21D;52787;51.084;5.816;2023-05-07T14:29:15;24.23;53.52
66019;HTU21D;52787;51.084;5.816;2023-05-07T14:31:44;24.18;54.10
66019;HTU21D;52787;51.084;5.816;2023-05-07T14:34:11;24.34;53.94
66019;HTU21D;52787;51.084;5.816;2023-05-07T14:36:36;24.58;53.10
66019;HTU21D;52787;51.084;5.816;2023-05-07T14:39:03;24.77;52.60
66019;HTU21D;52787;51.084;5.816;2023-05-07T14:41:29;24.88;52.69
66019;HTU21D;52787;51.084;5.816;2023-05-07T14:43:56;25.05;51.52
66019;HTU21D;52787;51.084;5.816;2023-05-07T14:46:24;25.19;50.65
66019;HTU21D;52787;51.084;5.816;2023-05-07T14:48:50;25.42;50.68
66019;HTU21D;52787;51.084;5.816;2023-05-07T14:51:16;25.69;49.89
66019;HTU21D;52787;51.084;5.816;2023-05-07T14:53:42;25.86;49.37
66019;HTU21D;52787;51.084;5.816;2023-05-07T14:56:08;25.83;49.36
66019;HTU21D;52787;51.084;5.816;2023-05-07T14:58:34;25.91;49.47
66019;HTU21D;52787;51.084;5.816;2023-05-07T15:01:00;26.11;49.18
66019;HTU21D;52787;51.084;5.816;2023-05-07T15:03:27;26.27;48.29
66019;HTU21D;52787;51.084;5.816;2023-05-07T15:05:54;26.15;47.93
66019;HTU21D;52787;51.084;5.816;2023-05-07T15:08:19;26.11;48.55
66019;HTU21D;52787;51.084;5.816;2023-05-07T15:10:45;26.10;48.66
66019;HTU21D;52787;51.084;5.816;2023-05-07T15:13:12;26.09;49.16
66019;HTU21D;52787;51.084;5.816;2023-05-07T15:15:38;26.09;48.82
66019;HTU21D;52787;51.084;5.816;2023-05-07T15:18:05;26.03;49.27
66019;HTU21D;52787;51.084;5.816;2023-05-07T15:20:31;26.16;49.37
66019;HTU21D;52787;51.084;5.816;2023-05-07T15:22:58;26.30;48.60
66019;HTU21D;52787;51.084;5.816;2023-05-07T15:25:24;26.33;48.15
66019;HTU21D;52787;51.084;5.816;2023-05-07T15:27:50;26.33;47.83
66019;HTU21D;52787;51.084;5.816;2023-05-07T15:30:16;26.27;47.64
66019;HTU21D;52787;51.084;5.816;2023-05-07T15:32:42;26.23;47.63
66019;HTU21D;52787;51.084;5.816;2023-05-07T15:35:10;26.16;47.40